sensor_id;sensor_type;location;lat;lon;timestamp;P1;durP1;ratioP1;P2;durP2;ratioP2
3052;SDS011;1536;51.098;6.414;2023-03-14T00:01:44;9.20;;;3.63;;
3052;SDS011;1536;51.098;6.414;2023-03-14T00:04:11;4.37;;;1.90;;
3052;SDS011;1536;51.098;6.414;2023-03-14T00:06:38;3.37;;;1.70;;
3052;SDS011;1536;51.098;6.414;2023-03-14T00:09:04;9.67;;;3.10;;
3052;SDS011;1536;51.098;6.414;2023-03-14T00:11:32;9.10;;;2.07;;
3052;SDS011;1536;51.098;6.414;2023-03-14T00:14:00;4.17;;;1.90;;
3052;SDS011;1536;51.098;6.414;2023-03-14T00:16:27;9.13;;;2.40;;
3052;SDS011;1536;51.098;6.414;2023-03-14T00:18:54;5.97;;;1.97;;
3052;SDS011;1536;51.098;6.414;2023-03-14T00:21:21;6.30;;;2.17;;
3052;SDS011;1536;51.098;6.414;2023-03-14T00:23:47;5.97;;;1.70;;
3052;SDS011;1536;51.098;6.414;2023-03-14T00:26:15;8.37;;;2.57;;
3052;SDS011;1536;51.098;6.414;2023-03-14T00:28:43;5.77;;;2.10;;
3052;SDS011;1536;51.098;6.414;2023-03-14T00:31:12;6.17;;;2.17;;
3052;SDS011;1536;51.098;6.414;2023-03-14T00:33:41;2.77;;;1.37;;
3052;SDS011;1536;51.098;6.414;2023-03-14T00:36:09;3.33;;;1.83;;
3052;SDS011;1536;51.098;6.414;2023-03-14T00:38:38;4.50;;;1.77;;
3052;SDS011;1536;51.098;6.414;2023-03-14T00:41:05;7.87;;;1.93;;
3052;SDS011;1536;51.098;6.414;2023-03-14T00:43:35;2.97;;;1.20;;
3052;SDS011;1536;51.098;6.414;2023-03-14T00:46:01;3.57;;;1.47;;
3052;SDS011;1536;51.098;6.414;2023-03-14T00:48:30;9.23;;;1.50;;
3052;SDS011;1536;51.098;6.414;2023-03-14T00:50:57;3.40;;;1.50;;
3052;SDS011;1536;51.098;6.414;2023-03-14T00:53:24;3.33;;;1.17;;
3052;SDS011;1536;51.098;6.414;2023-03-14T00:55:51;3.90;;;1.43;;
3052;SDS011;1536;51.098;6.414;2023-03-14T00:58:18;3.23;;;1.60;;
3052;SDS011;1536;51.098;6.414;2023-03-14T01:00:45;5.77;;;1.20;;
3052;SDS011;1536;51.098;6.414;2023-03-14T01:03:13;6.15;;;2.08;;
3052;SDS011;1536;51.098;6.414;2023-03-14T01:05:42;4.50;;;2.83;;
3052;SDS011;1536;51.098;6.414;2023-03-14T01:08:08;5.67;;;1.57;;
3052;SDS011;1536;51.098;6.414;2023-03-14T01:10:37;2.42;;;1.33;;
3052;SDS011;1536;51.098;6.414;2023-03-14T01:13:05;6.30;;;2.10;;
3052;SDS011;1536;51.098;6.414;2023-03-14T01:15:31;5.10;;;2.00;;
3052;SDS011;1536;51.098;6.414;2023-03-14T01:17:58;9.50;;;2.90;;
3052;SDS011;1536;51.098;6.414;2023-03-14T01:20:25;4.00;;;1.33;;
3052;SDS011;1536;51.098;6.414;2023-03-14T01:22:53;8.23;;;2.73;;
3052;SDS011;1536;51.098;6.414;2023-03-14T01:25:21;11.95;;;2.20;;
3052;SDS011;1536;51.098;6.414;2023-03-14T01:27:48;4.25;;;2.00;;
3052;SDS011;1536;51.098;6.414;2023-03-14T01:30:14;5.25;;;2.95;;
3052;SDS011;1536;51.098;6.414;2023-03-14T01:32:41;5.80;;;1.93;;
3052;SDS011;1536;51.098;6.414;2023-03-14T01:35:08;10.10;;;2.10;;
3052;SDS011;1536;51.098;6.414;2023-03-14T01:37:35;7.82;;;1.73;;
3052;SDS011;1536;51.098;6.414;2023-03-14T01:40:03;4.97;;;1.73;;
3052;SDS011;1536;51.098;6.414;2023-03-14T01:42:31;7.43;;;1.63;;
3052;SDS011;1536;51.098;6.414;2023-03-14T01:44:59;11.10;;;2.30;;
3052;SDS011;1536;51.098;6.414;2023-03-14T01:47:27;3.22;;;1.60;;
3052;SDS011;1536;51.098;6.414;2023-03-14T01:49:54;6.67;;;1.70;;
3052;SDS011;1536;51.098;6.414;2023-03-14T01:52:26;6.10;;;1.92;;
3052;SDS011;1536;51.098;6.414;2023-03-14T01:54:58;2.70;;;1.52;;
3052;SDS011;1536;51.098;6.414;2023-03-14T01:57:32;3.83;;;1.60;;
3052;SDS011;1536;51.098;6.414;2023-03-14T02:00:03;6.13;;;1.53;;
3052;SDS011;1536;51.098;6.414;2023-03-14T02:02:36;3.30;;;1.63;;
3052;SDS011;1536;51.098;6.414;2023-03-14T02:05:04;6.93;;;1.40;;
3052;SDS011;1536;51.098;6.414;2023-03-14T02:07:33;6.47;;;1.60;;
3052;SDS011;1536;51.098;6.414;2023-03-14T02:10:05;8.55;;;1.67;;
3052;SDS011;1536;51.098;6.414;2023-03-14T02:12:32;4.15;;;1.48;;
3052;SDS011;1536;51.098;6.414;2023-03-14T02:15:00;9.57;;;1.58;;
3052;SDS011;1536;51.098;6.414;2023-03-14T02:17:27;5.27;;;2.07;;
3052;SDS011;1536;51.098;6.414;2023-03-14T02:19:57;4.18;;;1.85;;
3052;SDS011;1536;51.098;6.414;2023-03-14T02:22:42;2.90;;;1.30;;
3052;SDS011;1536;51.098;6.414;2023-03-14T02:25:13;4.50;;;1.47;;
3052;SDS011;1536;51.098;6.414;2023-03-14T02:27:44;3.47;;;1.33;;
3052;SDS011;1536;51.098;6.414;2023-03-14T02:30:13;2.63;;;1.47;;
3052;SDS011;1536;51.098;6.414;2023-03-14T02:32:45;4.37;;;1.53;;
3052;SDS011;1536;51.098;6.414;2023-03-14T02:35:14;4.72;;;1.88;;
3052;SDS011;1536;51.098;6.414;2023-03-14T02:37:46;7.07;;;1.80;;
3052;SDS011;1536;51.098;6.414;2023-03-14T02:40:16;8.40;;;1.80;;
3052;SDS011;1536;51.098;6.414;2023-03-14T02:42:44;5.03;;;1.80;;
3052;SDS011;1536;51.098;6.414;2023-03-14T02:48:08;6.03;;;1.93;;
3052;SDS011;1536;51.098;6.414;2023-03-14T02:50:38;6.93;;;2.17;;
3052;SDS011;1536;51.098;6.414;2023-03-14T02:53:05;5.47;;;1.90;;
3052;SDS011;1536;51.098;6.414;2023-03-14T02:55:32;11.75;;;2.83;;
3052;SDS011;1536;51.098;6.414;2023-03-14T02:58:00;4.63;;;1.87;;
3052;SDS011;1536;51.098;6.414;2023-03-14T03:00:27;6.82;;;2.15;;
3052;SDS011;1536;51.098;6.414;2023-03-14T03:02:55;6.37;;;1.97;;
3052;SDS011;1536;51.098;6.414;2023-03-14T03:05:22;5.73;;;1.97;;
3052;SDS011;1536;51.098;6.414;2023-03-14T03:07:49;7.23;;;2.37;;
3052;SDS011;1536;51.098;6.414;2023-03-14T03:10:16;3.97;;;2.00;;
3052;SDS011;1536;51.098;6.414;2023-03-14T03:12:43;5.33;;;2.10;;
3052;SDS011;1536;51.098;6.414;2023-03-14T03:15:11;6.13;;;2.60;;
3052;SDS011;1536;51.098;6.414;2023-03-14T03:17:38;8.97;;;2.27;;
3052;SDS011;1536;51.098;6.414;2023-03-14T03:20:05;6.20;;;2.10;;
3052;SDS011;1536;51.098;6.414;2023-03-14T03:22:34;5.53;;;2.37;;
3052;SDS011;1536;51.098;6.414;2023-03-14T03:25:01;8.83;;;2.30;;
3052;SDS011;1536;51.098;6.414;2023-03-14T03:27:29;8.45;;;2.25;;
3052;SDS011;1536;51.098;6.414;2023-03-14T03:29:56;12.30;;;3.77;;
3052;SDS011;1536;51.098;6.414;2023-03-14T03:32:25;4.40;;;1.83;;
3052;SDS011;1536;51.098;6.414;2023-03-14T03:34:52;4.83;;;1.73;;
3052;SDS011;1536;51.098;6.414;2023-03-14T03:37:19;12.82;;;3.45;;
3052;SDS011;1536;51.098;6.414;2023-03-14T03:39:45;8.53;;;1.97;;
3052;SDS011;1536;51.098;6.414;2023-03-14T03:42:12;6.00;;;2.47;;
3052;SDS011;1536;51.098;6.414;2023-03-14T03:44:39;6.33;;;2.30;;
3052;SDS011;1536;51.098;6.414;2023-03-14T03:47:06;10.02;;;2.40;;
3052;SDS011;1536;51.098;6.414;2023-03-14T03:49:34;5.38;;;1.77;;
3052;SDS011;1536;51.098;6.414;2023-03-14T03:52:00;8.37;;;2.87;;
3052;SDS011;1536;51.098;6.414;2023-03-14T03:54:27;3.90;;;1.77;;
3052;SDS011;1536;51.098;6.414;2023-03-14T03:56:54;8.47;;;2.17;;
3052;SDS011;1536;51.098;6.414;2023-03-14T03:59:21;7.77;;;2.20;;
3052;SDS011;1536;51.098;6.414;2023-03-14T04:01:48;7.40;;;2.20;;
3052;SDS011;1536;51.098;6.414;2023-03-14T04:04:15;5.27;;;1.80;;
3052;SDS011;1536;51.098;6.414;2023-03-14T04:06:58;4.43;;;1.40;;
3052;SDS011;1536;51.098;6.414;2023-03-14T04:09:24;7.00;;;1.80;;
3052;SDS011;1536;51.098;6.414;2023-03-14T04:11:51;4.97;;;1.30;;
3052;SDS011;1536;51.098;6.414;2023-03-14T04:14:18;5.63;;;1.73;;
3052;SDS011;1536;51.098;6.414;2023-03-14T04:16:44;5.33;;;1.40;;
3052;SDS011;1536;51.098;6.414;2023-03-14T04:19:11;6.60;;;1.90;;
3052;SDS011;1536;51.098;6.414;2023-03-14T04:21:38;4.97;;;1.70;;
3052;SDS011;1536;51.098;6.414;2023-03-14T04:24:11;4.80;;;1.67;;
3052;SDS011;1536;51.098;6.414;2023-03-14T04:26:37;3.10;;;1.50;;
3052;SDS011;1536;51.098;6.414;2023-03-14T04:29:04;1.67;;;1.13;;
3052;SDS011;1536;51.098;6.414;2023-03-14T04:31:31;2.90;;;1.23;;
3052;SDS011;1536;51.098;6.414;2023-03-14T04:33:57;1.60;;;1.00;;
3052;SDS011;1536;51.098;6.414;2023-03-14T04:36:24;1.60;;;1.10;;
3052;SDS011;1536;51.098;6.414;2023-03-14T04:38:51;1.97;;;0.90;;
3052;SDS011;1536;51.098;6.414;2023-03-14T04:41:19;3.63;;;0.82;;
3052;SDS011;1536;51.098;6.414;2023-03-14T04:43:46;1.97;;;1.00;;
3052;SDS011;1536;51.098;6.414;2023-03-14T04:46:12;2.73;;;1.00;;
3052;SDS011;1536;51.098;6.414;2023-03-14T04:48:39;5.33;;;1.33;;
3052;SDS011;1536;51.098;6.414;2023-03-14T04:51:06;3.13;;;1.83;;
3052;SDS011;1536;51.098;6.414;2023-03-14T04:53:33;1.63;;;0.70;;
3052;SDS011;1536;51.098;6.414;2023-03-14T04:56:02;1.20;;;0.73;;
3052;SDS011;1536;51.098;6.414;2023-03-14T04:58:30;2.00;;;1.23;;
3052;SDS011;1536;51.098;6.414;2023-03-14T05:01:01;1.30;;;0.70;;
3052;SDS011;1536;51.098;6.414;2023-03-14T05:03:28;2.10;;;0.70;;
3052;SDS011;1536;51.098;6.414;2023-03-14T05:05:55;0.93;;;0.68;;
3052;SDS011;1536;51.098;6.414;2023-03-14T05:08:22;1.55;;;0.70;;
3052;SDS011;1536;51.098;6.414;2023-03-14T05:10:51;0.90;;;0.70;;
3052;SDS011;1536;51.098;6.414;2023-03-14T05:13:18;3.33;;;0.80;;
3052;SDS011;1536;51.098;6.414;2023-03-14T05:15:46;2.17;;;0.80;;
3052;SDS011;1536;51.098;6.414;2023-03-14T05:18:13;0.90;;;0.70;;
3052;SDS011;1536;51.098;6.414;2023-03-14T05:20:40;1.20;;;0.70;;
3052;SDS011;1536;51.098;6.414;2023-03-14T05:23:08;1.10;;;0.60;;
3052;SDS011;1536;51.098;6.414;2023-03-14T05:25:34;3.17;;;0.70;;
3052;SDS011;1536;51.098;6.414;2023-03-14T05:28:01;3.03;;;1.07;;
3052;SDS011;1536;51.098;6.414;2023-03-14T05:30:28;0.93;;;0.70;;
3052;SDS011;1536;51.098;6.414;2023-03-14T05:32:57;1.27;;;0.70;;
3052;SDS011;1536;51.098;6.414;2023-03-14T05:35:23;0.90;;;0.70;;
3052;SDS011;1536;51.098;6.414;2023-03-14T05:37:50;2.20;;;0.70;;
3052;SDS011;1536;51.098;6.414;2023-03-14T05:40:17;0.90;;;0.60;;
3052;SDS011;1536;51.098;6.414;2023-03-14T05:42:44;0.80;;;0.60;;
3052;SDS011;1536;51.098;6.414;2023-03-14T05:45:10;1.15;;;0.63;;
3052;SDS011;1536;51.098;6.414;2023-03-14T05:47:37;0.90;;;0.70;;
3052;SDS011;1536;51.098;6.414;2023-03-14T05:50:06;1.00;;;0.70;;
3052;SDS011;1536;51.098;6.414;2023-03-14T05:52:33;1.03;;;0.80;;
3052;SDS011;1536;51.098;6.414;2023-03-14T05:55:00;1.25;;;0.70;;
3052;SDS011;1536;51.098;6.414;2023-03-14T05:57:26;0.80;;;0.60;;
3052;SDS011;1536;51.098;6.414;2023-03-14T05:59:53;0.80;;;0.70;;
3052;SDS011;1536;51.098;6.414;2023-03-14T06:02:20;1.37;;;0.70;;
3052;SDS011;1536;51.098;6.414;2023-03-14T06:04:46;0.87;;;0.63;;
3052;SDS011;1536;51.098;6.414;2023-03-14T06:07:15;0.90;;;0.70;;
3052;SDS011;1536;51.098;6.414;2023-03-14T06:09:41;0.80;;;0.60;;
3052;SDS011;1536;51.098;6.414;2023-03-14T06:12:08;0.90;;;0.63;;
3052;SDS011;1536;51.098;6.414;2023-03-14T06:14:35;0.90;;;0.70;;
3052;SDS011;1536;51.098;6.414;2023-03-14T06:17:02;0.80;;;0.70;;
3052;SDS011;1536;51.098;6.414;2023-03-14T06:19:28;0.80;;;0.60;;
3052;SDS011;1536;51.098;6.414;2023-03-14T06:21:55;2.20;;;0.83;;
3052;SDS011;1536;51.098;6.414;2023-03-14T06:24:23;0.80;;;0.60;;
3052;SDS011;1536;51.098;6.414;2023-03-14T06:26:50;0.83;;;0.67;;
3052;SDS011;1536;51.098;6.414;2023-03-14T06:29:16;1.00;;;0.70;;
3052;SDS011;1536;51.098;6.414;2023-03-14T06:31:43;0.80;;;0.60;;
3052;SDS011;1536;51.098;6.414;2023-03-14T06:34:10;0.90;;;0.65;;
3052;SDS011;1536;51.098;6.414;2023-03-14T06:36:37;0.82;;;0.70;;
3052;SDS011;1536;51.098;6.414;2023-03-14T06:39:04;2.65;;;0.80;;
3052;SDS011;1536;51.098;6.414;2023-03-14T06:41:32;1.27;;;1.00;;
3052;SDS011;1536;51.098;6.414;2023-03-14T06:43:59;0.90;;;0.80;;
3052;SDS011;1536;51.098;6.414;2023-03-14T06:46:25;5.00;;;0.80;;
3052;SDS011;1536;51.098;6.414;2023-03-14T06:48:52;1.20;;;0.70;;
3052;SDS011;1536;51.098;6.414;2023-03-14T06:51:19;2.30;;;1.67;;
3052;SDS011;1536;51.098;6.414;2023-03-14T06:53:46;1.00;;;0.90;;
3052;SDS011;1536;51.098;6.414;2023-03-14T06:56:13;0.93;;;0.60;;
3052;SDS011;1536;51.098;6.414;2023-03-14T06:58:41;0.80;;;0.70;;
3052;SDS011;1536;51.098;6.414;2023-03-14T07:01:12;1.07;;;0.77;;
3052;SDS011;1536;51.098;6.414;2023-03-14T07:03:46;0.90;;;0.70;;
3052;SDS011;1536;51.098;6.414;2023-03-14T07:06:12;1.13;;;0.87;;
3052;SDS011;1536;51.098;6.414;2023-03-14T07:08:39;0.90;;;0.73;;
3052;SDS011;1536;51.098;6.414;2023-03-14T07:11:06;0.90;;;0.70;;
3052;SDS011;1536;51.098;6.414;2023-03-14T07:13:35;2.33;;;1.20;;
3052;SDS011;1536;51.098;6.414;2023-03-14T07:16:03;1.00;;;0.80;;
3052;SDS011;1536;51.098;6.414;2023-03-14T07:18:30;1.10;;;1.00;;
3052;SDS011;1536;51.098;6.414;2023-03-14T07:20:57;4.43;;;0.87;;
3052;SDS011;1536;51.098;6.414;2023-03-14T07:23:24;1.30;;;0.80;;
3052;SDS011;1536;51.098;6.414;2023-03-14T07:25:51;1.53;;;1.00;;
3052;SDS011;1536;51.098;6.414;2023-03-14T07:28:18;1.23;;;0.80;;
3052;SDS011;1536;51.098;6.414;2023-03-14T07:30:45;1.67;;;0.90;;
3052;SDS011;1536;51.098;6.414;2023-03-14T07:33:14;0.90;;;0.80;;
3052;SDS011;1536;51.098;6.414;2023-03-14T07:35:41;1.77;;;0.80;;
3052;SDS011;1536;51.098;6.414;2023-03-14T07:38:07;1.00;;;0.90;;
3052;SDS011;1536;51.098;6.414;2023-03-14T07:40:34;1.13;;;0.90;;
3052;SDS011;1536;51.098;6.414;2023-03-14T07:43:01;1.43;;;0.90;;
3052;SDS011;1536;51.098;6.414;2023-03-14T07:45:28;1.67;;;0.90;;
3052;SDS011;1536;51.098;6.414;2023-03-14T07:47:54;2.50;;;0.97;;
3052;SDS011;1536;51.098;6.414;2023-03-14T07:50:23;1.58;;;1.13;;
3052;SDS011;1536;51.098;6.414;2023-03-14T07:52:50;1.27;;;1.17;;
3052;SDS011;1536;51.098;6.414;2023-03-14T07:55:17;2.60;;;1.10;;
3052;SDS011;1536;51.098;6.414;2023-03-14T07:57:43;1.70;;;1.00;;
3052;SDS011;1536;51.098;6.414;2023-03-14T08:00:11;1.10;;;1.00;;
3052;SDS011;1536;51.098;6.414;2023-03-14T08:02:39;1.40;;;1.20;;
3052;SDS011;1536;51.098;6.414;2023-03-14T08:05:05;2.70;;;1.20;;
3052;SDS011;1536;51.098;6.414;2023-03-14T08:07:35;1.10;;;0.83;;
3052;SDS011;1536;51.098;6.414;2023-03-14T08:10:03;1.70;;;1.17;;
3052;SDS011;1536;51.098;6.414;2023-03-14T08:12:30;1.10;;;0.90;;
3052;SDS011;1536;51.098;6.414;2023-03-14T08:14:57;1.20;;;1.10;;
3052;SDS011;1536;51.098;6.414;2023-03-14T08:17:24;3.73;;;1.20;;
3052;SDS011;1536;51.098;6.414;2023-03-14T08:19:51;1.50;;;1.40;;
3052;SDS011;1536;51.098;6.414;2023-03-14T08:22:18;1.13;;;1.03;;
3052;SDS011;1536;51.098;6.414;2023-03-14T08:24:46;2.20;;;1.43;;
3052;SDS011;1536;51.098;6.414;2023-03-14T08:27:12;1.60;;;1.47;;
3052;SDS011;1536;51.098;6.414;2023-03-14T08:29:40;1.73;;;1.33;;
3052;SDS011;1536;51.098;6.414;2023-03-14T08:32:07;1.90;;;1.53;;
3052;SDS011;1536;51.098;6.414;2023-03-14T08:34:34;3.57;;;1.50;;
3052;SDS011;1536;51.098;6.414;2023-03-14T08:37:01;2.23;;;1.20;;
3052;SDS011;1536;51.098;6.414;2023-03-14T08:39:28;2.50;;;1.70;;
3052;SDS011;1536;51.098;6.414;2023-03-14T08:41:56;1.77;;;1.20;;
3052;SDS011;1536;51.098;6.414;2023-03-14T08:44:22;1.77;;;1.30;;
3052;SDS011;1536;51.098;6.414;2023-03-14T08:46:49;2.17;;;1.10;;
3052;SDS011;1536;51.098;6.414;2023-03-14T08:49:16;1.73;;;1.10;;
3052;SDS011;1536;51.098;6.414;2023-03-14T08:51:43;1.40;;;1.20;;
3052;SDS011;1536;51.098;6.414;2023-03-14T08:54:10;2.23;;;1.20;;
3052;SDS011;1536;51.098;6.414;2023-03-14T08:56:37;1.75;;;1.27;;
3052;SDS011;1536;51.098;6.414;2023-03-14T08:59:05;1.92;;;1.25;;
3052;SDS011;1536;51.098;6.414;2023-03-14T09:01:33;1.93;;;1.10;;
3052;SDS011;1536;51.098;6.414;2023-03-14T09:04:00;1.20;;;1.03;;
3052;SDS011;1536;51.098;6.414;2023-03-14T09:06:26;1.03;;;0.93;;
3052;SDS011;1536;51.098;6.414;2023-03-14T09:08:53;0.93;;;0.80;;
3052;SDS011;1536;51.098;6.414;2023-03-14T09:11:20;0.90;;;0.80;;
3052;SDS011;1536;51.098;6.414;2023-03-14T09:13:46;1.00;;;0.80;;
3052;SDS011;1536;51.098;6.414;2023-03-14T09:16:15;4.07;;;1.00;;
3052;SDS011;1536;51.098;6.414;2023-03-14T09:18:42;1.20;;;1.00;;
3052;SDS011;1536;51.098;6.414;2023-03-14T09:21:09;1.42;;;1.33;;
3052;SDS011;1536;51.098;6.414;2023-03-14T09:23:35;1.40;;;1.17;;
3052;SDS011;1536;51.098;6.414;2023-03-14T09:26:02;1.60;;;1.50;;
3052;SDS011;1536;51.098;6.414;2023-03-14T09:28:29;1.67;;;1.50;;
3052;SDS011;1536;51.098;6.414;2023-03-14T09:30:56;1.98;;;1.67;;
3052;SDS011;1536;51.098;6.414;2023-03-14T09:33:24;4.32;;;1.85;;
3052;SDS011;1536;51.098;6.414;2023-03-14T09:35:51;3.42;;;1.65;;
3052;SDS011;1536;51.098;6.414;2023-03-14T09:38:18;2.75;;;2.55;;
3052;SDS011;1536;51.098;6.414;2023-03-14T09:40:45;2.13;;;1.92;;
3052;SDS011;1536;51.098;6.414;2023-03-14T09:43:14;2.85;;;2.65;;
3052;SDS011;1536;51.098;6.414;2023-03-14T09:45:41;3.28;;;2.22;;
3052;SDS011;1536;51.098;6.414;2023-03-14T09:48:12;2.55;;;2.38;;
3052;SDS011;1536;51.098;6.414;2023-03-14T09:50:44;3.45;;;2.20;;
3052;SDS011;1536;51.098;6.414;2023-03-14T09:53:16;2.10;;;2.00;;
3052;SDS011;1536;51.098;6.414;2023-03-14T09:55:45;2.60;;;2.40;;
3052;SDS011;1536;51.098;6.414;2023-03-14T09:58:16;2.50;;;2.05;;
3052;SDS011;1536;51.098;6.414;2023-03-14T10:00:45;2.53;;;2.33;;
3052;SDS011;1536;51.098;6.414;2023-03-14T10:03:22;2.47;;;1.95;;
3052;SDS011;1536;51.098;6.414;2023-03-14T10:06:10;1.67;;;1.58;;
3052;SDS011;1536;51.098;6.414;2023-03-14T10:08:39;2.00;;;1.85;;
3052;SDS011;1536;51.098;6.414;2023-03-14T10:11:06;1.83;;;1.73;;
3052;SDS011;1536;51.098;6.414;2023-03-14T10:13:36;2.15;;;1.95;;
3052;SDS011;1536;51.098;6.414;2023-03-14T10:16:14;2.45;;;1.90;;
3052;SDS011;1536;51.098;6.414;2023-03-14T10:18:43;2.63;;;1.58;;
3052;SDS011;1536;51.098;6.414;2023-03-14T10:21:21;3.58;;;1.70;;
3052;SDS011;1536;51.098;6.414;2023-03-14T10:23:51;3.47;;;1.40;;
3052;SDS011;1536;51.098;6.414;2023-03-14T10:26:18;3.67;;;1.20;;
3052;SDS011;1536;51.098;6.414;2023-03-14T10:28:51;2.65;;;1.38;;
3052;SDS011;1536;51.098;6.414;2023-03-14T10:31:19;1.67;;;1.30;;
3052;SDS011;1536;51.098;6.414;2023-03-14T10:33:57;2.63;;;1.40;;
3052;SDS011;1536;51.098;6.414;2023-03-14T10:36:28;4.05;;;1.33;;
3052;SDS011;1536;51.098;6.414;2023-03-14T10:38:57;1.63;;;1.35;;
3052;SDS011;1536;51.098;6.414;2023-03-14T10:41:31;2.75;;;1.48;;
3052;SDS011;1536;51.098;6.414;2023-03-14T10:43:59;2.15;;;1.85;;
3052;SDS011;1536;51.098;6.414;2023-03-14T10:46:29;3.20;;;2.33;;
3052;SDS011;1536;51.098;6.414;2023-03-14T10:48:58;3.53;;;2.15;;
3052;SDS011;1536;51.098;6.414;2023-03-14T10:51:31;4.18;;;2.38;;
3052;SDS011;1536;51.098;6.414;2023-03-14T10:53:59;3.33;;;2.40;;
3052;SDS011;1536;51.098;6.414;2023-03-14T10:56:28;2.70;;;2.22;;
3052;SDS011;1536;51.098;6.414;2023-03-14T10:59:02;3.90;;;2.22;;
3052;SDS011;1536;51.098;6.414;2023-03-14T11:01:36;2.15;;;2.00;;
3052;SDS011;1536;51.098;6.414;2023-03-14T11:04:10;2.90;;;2.08;;
3052;SDS011;1536;51.098;6.414;2023-03-14T11:06:48;5.22;;;2.50;;
3052;SDS011;1536;51.098;6.414;2023-03-14T11:09:23;2.00;;;0.85;;
3052;SDS011;1536;51.098;6.414;2023-03-14T11:11:56;1.60;;;1.08;;
3052;SDS011;1536;51.098;6.414;2023-03-14T11:14:29;2.08;;;0.82;;
3052;SDS011;1536;51.098;6.414;2023-03-14T11:17:02;1.13;;;0.90;;
3052;SDS011;1536;51.098;6.414;2023-03-14T11:19:41;2.25;;;1.42;;
3052;SDS011;1536;51.098;6.414;2023-03-14T11:22:17;2.30;;;1.55;;
3052;SDS011;1536;51.098;6.414;2023-03-14T11:24:52;2.75;;;1.30;;
3052;SDS011;1536;51.098;6.414;2023-03-14T11:27:40;2.20;;;1.40;;
3052;SDS011;1536;51.098;6.414;2023-03-14T11:30:17;4.90;;;1.33;;
3052;SDS011;1536;51.098;6.414;2023-03-14T11:32:49;3.00;;;2.55;;
3052;SDS011;1536;51.098;6.414;2023-03-14T11:35:22;2.03;;;1.25;;
3052;SDS011;1536;51.098;6.414;2023-03-14T11:37:54;3.60;;;1.50;;
3052;SDS011;1536;51.098;6.414;2023-03-14T11:40:27;4.88;;;1.33;;
3052;SDS011;1536;51.098;6.414;2023-03-14T11:42:55;2.10;;;1.50;;
3052;SDS011;1536;51.098;6.414;2023-03-14T11:45:27;1.27;;;1.17;;
3052;SDS011;1536;51.098;6.414;2023-03-14T11:48:07;3.58;;;1.30;;
3052;SDS011;1536;51.098;6.414;2023-03-14T11:50:52;2.67;;;1.42;;
3052;SDS011;1536;51.098;6.414;2023-03-14T11:53:25;1.55;;;1.40;;
3052;SDS011;1536;51.098;6.414;2023-03-14T11:56:02;3.45;;;1.55;;
3052;SDS011;1536;51.098;6.414;2023-03-14T11:58:30;4.82;;;1.50;;
3052;SDS011;1536;51.098;6.414;2023-03-14T12:01:01;4.25;;;1.25;;
3052;SDS011;1536;51.098;6.414;2023-03-14T12:03:35;3.45;;;1.45;;
3052;SDS011;1536;51.098;6.414;2023-03-14T12:06:09;5.07;;;1.75;;
3052;SDS011;1536;51.098;6.414;2023-03-14T12:08:43;2.80;;;1.33;;
3052;SDS011;1536;51.098;6.414;2023-03-14T12:11:16;5.75;;;1.40;;
3052;SDS011;1536;51.098;6.414;2023-03-14T12:13:47;3.33;;;1.50;;
3052;SDS011;1536;51.098;6.414;2023-03-14T12:16:27;3.33;;;1.75;;
3052;SDS011;1536;51.098;6.414;2023-03-14T12:19:13;4.20;;;1.80;;
3052;SDS011;1536;51.098;6.414;2023-03-14T12:21:55;3.13;;;1.60;;
3052;SDS011;1536;51.098;6.414;2023-03-14T12:24:28;3.38;;;1.42;;
3052;SDS011;1536;51.098;6.414;2023-03-14T12:26:58;5.65;;;1.85;;
3052;SDS011;1536;51.098;6.414;2023-03-14T12:29:27;6.10;;;1.90;;
3052;SDS011;1536;51.098;6.414;2023-03-14T12:32:09;9.75;;;2.17;;
3052;SDS011;1536;51.098;6.414;2023-03-14T12:34:48;6.03;;;1.65;;
3052;SDS011;1536;51.098;6.414;2023-03-14T12:37:17;5.05;;;2.10;;
3052;SDS011;1536;51.098;6.414;2023-03-14T12:42:44;4.15;;;1.60;;
3052;SDS011;1536;51.098;6.414;2023-03-14T12:45:21;7.03;;;2.47;;
3052;SDS011;1536;51.098;6.414;2023-03-14T12:47:54;6.80;;;2.00;;
3052;SDS011;1536;51.098;6.414;2023-03-14T12:50:30;5.55;;;2.83;;
3052;SDS011;1536;51.098;6.414;2023-03-14T12:56:09;12.77;;;2.58;;
3052;SDS011;1536;51.098;6.414;2023-03-14T12:58:47;10.00;;;3.72;;
3052;SDS011;1536;51.098;6.414;2023-03-14T13:01:25;10.45;;;2.55;;
3052;SDS011;1536;51.098;6.414;2023-03-14T13:03:52;9.98;;;3.85;;
3052;SDS011;1536;51.098;6.414;2023-03-14T13:09:34;6.93;;;2.95;;
3052;SDS011;1536;51.098;6.414;2023-03-14T13:12:17;4.57;;;2.20;;
3052;SDS011;1536;51.098;6.414;2023-03-14T13:14:49;7.28;;;1.58;;
3052;SDS011;1536;51.098;6.414;2023-03-14T13:17:22;5.43;;;2.20;;
3052;SDS011;1536;51.098;6.414;2023-03-14T13:19:53;9.88;;;2.83;;
3052;SDS011;1536;51.098;6.414;2023-03-14T13:22:23;10.98;;;2.05;;
3052;SDS011;1536;51.098;6.414;2023-03-14T13:24:59;6.45;;;3.40;;
3052;SDS011;1536;51.098;6.414;2023-03-14T13:27:29;7.53;;;1.90;;
3052;SDS011;1536;51.098;6.414;2023-03-14T13:29:57;7.18;;;1.85;;
3052;SDS011;1536;51.098;6.414;2023-03-14T13:32:26;5.60;;;2.10;;
3052;SDS011;1536;51.098;6.414;2023-03-14T13:34:55;9.02;;;2.38;;
3052;SDS011;1536;51.098;6.414;2023-03-14T13:37:23;8.38;;;3.25;;
3052;SDS011;1536;51.098;6.414;2023-03-14T13:39:51;13.73;;;3.47;;
3052;SDS011;1536;51.098;6.414;2023-03-14T13:42:20;24.13;;;5.47;;
3052;SDS011;1536;51.098;6.414;2023-03-14T13:44:52;7.00;;;3.30;;
3052;SDS011;1536;51.098;6.414;2023-03-14T13:47:21;14.13;;;2.80;;
3052;SDS011;1536;51.098;6.414;2023-03-14T13:49:49;10.63;;;2.67;;
3052;SDS011;1536;51.098;6.414;2023-03-14T13:52:21;8.27;;;2.22;;
3052;SDS011;1536;51.098;6.414;2023-03-14T13:54:52;10.63;;;3.97;;
3052;SDS011;1536;51.098;6.414;2023-03-14T13:57:20;7.70;;;2.50;;
3052;SDS011;1536;51.098;6.414;2023-03-14T13:59:59;5.88;;;2.55;;
3052;SDS011;1536;51.098;6.414;2023-03-14T14:02:30;8.57;;;2.33;;
3052;SDS011;1536;51.098;6.414;2023-03-14T14:04:58;6.00;;;2.10;;
3052;SDS011;1536;51.098;6.414;2023-03-14T14:07:25;10.27;;;2.55;;
3052;SDS011;1536;51.098;6.414;2023-03-14T14:09:52;16.15;;;2.70;;
3052;SDS011;1536;51.098;6.414;2023-03-14T14:12:21;14.43;;;3.08;;
3052;SDS011;1536;51.098;6.414;2023-03-14T14:14:53;10.65;;;3.22;;
3052;SDS011;1536;51.098;6.414;2023-03-14T14:17:25;10.70;;;2.97;;
3052;SDS011;1536;51.098;6.414;2023-03-14T14:19:56;5.40;;;2.20;;
3052;SDS011;1536;51.098;6.414;2023-03-14T14:22:24;9.02;;;2.83;;
3052;SDS011;1536;51.098;6.414;2023-03-14T14:24:51;7.20;;;2.65;;
3052;SDS011;1536;51.098;6.414;2023-03-14T14:27:20;12.85;;;3.60;;
3052;SDS011;1536;51.098;6.414;2023-03-14T14:29:58;11.90;;;2.85;;
3052;SDS011;1536;51.098;6.414;2023-03-14T14:32:35;19.45;;;3.20;;
3052;SDS011;1536;51.098;6.414;2023-03-14T14:35:03;8.35;;;3.10;;
3052;SDS011;1536;51.098;6.414;2023-03-14T14:37:31;8.48;;;2.80;;
3052;SDS011;1536;51.098;6.414;2023-03-14T14:40:00;15.63;;;3.55;;
3052;SDS011;1536;51.098;6.414;2023-03-14T14:42:33;14.35;;;2.95;;
3052;SDS011;1536;51.098;6.414;2023-03-14T14:45:01;14.90;;;3.25;;
3052;SDS011;1536;51.098;6.414;2023-03-14T14:47:29;6.72;;;2.33;;
3052;SDS011;1536;51.098;6.414;2023-03-14T14:49:59;10.95;;;3.25;;
3052;SDS011;1536;51.098;6.414;2023-03-14T14:52:36;10.27;;;3.28;;
3052;SDS011;1536;51.098;6.414;2023-03-14T14:55:12;13.63;;;2.35;;
3052;SDS011;1536;51.098;6.414;2023-03-14T14:57:48;12.25;;;3.58;;
3052;SDS011;1536;51.098;6.414;2023-03-14T15:00:19;11.60;;;3.22;;
3052;SDS011;1536;51.098;6.414;2023-03-14T15:02:47;13.38;;;3.00;;
3052;SDS011;1536;51.098;6.414;2023-03-14T15:05:18;9.38;;;2.58;;
3052;SDS011;1536;51.098;6.414;2023-03-14T15:07:46;5.85;;;2.30;;
3052;SDS011;1536;51.098;6.414;2023-03-14T15:10:14;8.63;;;2.75;;
3052;SDS011;1536;51.098;6.414;2023-03-14T15:12:43;5.93;;;2.13;;
3052;SDS011;1536;51.098;6.414;2023-03-14T15:15:10;9.13;;;3.50;;
3052;SDS011;1536;51.098;6.414;2023-03-14T15:17:37;12.45;;;3.38;;
3052;SDS011;1536;51.098;6.414;2023-03-14T15:20:05;9.18;;;2.95;;
3052;SDS011;1536;51.098;6.414;2023-03-14T15:22:39;8.70;;;2.90;;
3052;SDS011;1536;51.098;6.414;2023-03-14T15:25:06;12.55;;;3.10;;
3052;SDS011;1536;51.098;6.414;2023-03-14T15:27:34;10.95;;;3.15;;
3052;SDS011;1536;51.098;6.414;2023-03-14T15:30:09;6.93;;;2.45;;
3052;SDS011;1536;51.098;6.414;2023-03-14T15:32:36;11.43;;;3.00;;
3052;SDS011;1536;51.098;6.414;2023-03-14T15:35:03;10.85;;;3.20;;
3052;SDS011;1536;51.098;6.414;2023-03-14T15:37:31;9.57;;;2.88;;
3052;SDS011;1536;51.098;6.414;2023-03-14T15:39:59;8.43;;;3.00;;